createdAt,value
2023-05-08T00:00:16.349Z,100
2023-05-08T00:15:59.124Z,100
2023-05-08T00:31:41.226Z,100
2023-05-08T00:47:23.649Z,100
2023-05-08T01:03:06.840Z,100
2023-05-08T01:18:49.426Z,100
2023-05-08T01:34:31.796Z,100
2023-05-08T01:50:14.737Z,100
2023-05-08T02:05:57.445Z,100
2023-05-08T02:21:40.440Z,100
2023-05-08T02:37:22.902Z,100
2023-05-08T02:53:05.498Z,100
2023-05-08T03:08:48.026Z,100
2023-05-08T03:24:31.034Z,100
2023-05-08T03:40:13.733Z,100
2023-05-08T03:55:56.374Z,100
2023-05-08T04:11:39.122Z,100
2023-05-08T04:27:22.248Z,100
2023-05-08T04:43:04.445Z,100
2023-05-08T04:58:47.211Z,100
2023-05-08T05:14:29.821Z,100
2023-05-08T05:30:12.755Z,100
2023-05-08T06:01:37.468Z,95.49
2023-05-08T06:17:19.933Z,91.44
2023-05-08T06:33:02.893Z,87.13
2023-05-08T07:04:28.341Z,71.38
2023-05-08T07:20:11.116Z,68.1
2023-05-08T07:35:53.584Z,64.15
2023-05-08T07:51:36.107Z,61.52
2023-05-08T08:07:18.483Z,56.81
2023-05-08T08:23:01.343Z,54.26
2023-05-08T08:54:26.657Z,43.83
2023-05-08T09:10:16.366Z,40.24
2023-05-08T09:25:52.122Z,40.7
2023-05-08T09:41:34.267Z,38.09
2023-05-08T09:57:16.599Z,34.49
2023-05-08T10:12:59.561Z,34.19
2023-05-08T10:28:41.932Z,31.03
2023-05-08T10:44:24.703Z,29.29
2023-05-08T11:00:06.744Z,28.44
2023-05-08T11:15:49.165Z,26.69
2023-05-08T11:31:31.337Z,28.29
2023-05-08T12:18:38.660Z,25.15
2023-05-08T12:34:20.968Z,22.98
2023-05-08T12:50:02.947Z,22.29
2023-05-08T13:05:45.471Z,21.67
2023-05-08T13:21:28.212Z,19.46
2023-05-08T13:37:10.996Z,20.44
2023-05-08T13:37:58.214Z,20.43
2023-05-08T13:53:47.886Z,21.15
2023-05-08T14:09:23.062Z,19.72
